createdAt,value
2023-05-20T00:00:50.887Z,94.60
2023-05-20T00:01:53.579Z,94.80
2023-05-20T00:02:57.713Z,94.90
2023-05-20T00:04:00.563Z,94.90
2023-05-20T00:05:03.832Z,95.10
2023-05-20T00:06:06.599Z,95.10
2023-05-20T00:07:09.365Z,95.20
2023-05-20T00:08:12.349Z,95.30
2023-05-20T00:09:15.004Z,95.40
2023-05-20T00:10:17.660Z,95.40
2023-05-20T00:11:20.383Z,95.50
2023-05-20T00:12:23.007Z,95.60
2023-05-20T00:13:25.721Z,95.70
2023-05-20T00:14:28.323Z,95.80
2023-05-20T00:15:31.106Z,95.90
2023-05-20T00:16:33.817Z,95.90
2023-05-20T00:17:36.515Z,96.00
2023-05-20T00:18:39.268Z,96.10
2023-05-20T00:19:41.871Z,96.20
2023-05-20T00:20:44.694Z,96.20
2023-05-20T00:21:47.337Z,96.30
2023-05-20T00:22:49.970Z,96.40
2023-05-20T00:23:52.684Z,96.50
2023-05-20T00:24:55.293Z,96.60
2023-05-20T00:26:00.473Z,96.60
2023-05-20T00:27:03.559Z,96.80
2023-05-20T00:28:07.065Z,96.80
2023-05-20T00:29:10.353Z,96.90
2023-05-20T00:30:13.252Z,97.00
2023-05-20T00:31:15.949Z,97.10
2023-05-20T00:32:18.704Z,97.10
2023-05-20T00:33:21.534Z,97.20
2023-05-20T00:34:24.315Z,97.30
2023-05-20T00:35:27.033Z,97.30
2023-05-20T00:36:29.786Z,97.40
2023-05-20T00:37:32.540Z,97.40
2023-05-20T00:38:35.153Z,97.40
2023-05-20T00:39:37.785Z,97.50
2023-05-20T00:40:40.468Z,97.50
2023-05-20T00:41:43.107Z,97.60
2023-05-20T00:42:45.765Z,97.60
2023-05-20T00:43:48.493Z,97.70
2023-05-20T00:44:51.849Z,97.70
2023-05-20T00:45:55.087Z,97.70
2023-05-20T00:46:57.833Z,97.80
2023-05-20T00:48:02.431Z,97.90
2023-05-20T00:49:05.817Z,98.00
2023-05-20T00:50:10.641Z,98.00
2023-05-20T00:51:15.434Z,98.00
2023-05-20T00:52:19.591Z,98.10
2023-05-20T00:53:22.809Z,98.20
2023-05-20T00:54:25.582Z,98.20
2023-05-20T00:55:28.333Z,98.20
2023-05-20T00:56:30.998Z,98.30
2023-05-20T00:57:33.620Z,98.20
2023-05-20T00:58:38.046Z,98.20
2023-05-20T00:59:42.831Z,98.10
2023-05-20T01:00:47.401Z,98.10
2023-05-20T01:01:50.242Z,98.10
2023-05-20T01:02:53.564Z,98.10
2023-05-20T01:03:56.277Z,98.10
2023-05-20T01:04:59.581Z,98.20
2023-05-20T01:06:03.078Z,98.20
2023-05-20T01:07:07.371Z,98.30
2023-05-20T01:08:10.054Z,98.30
2023-05-20T01:09:13.962Z,98.30
2023-05-20T01:10:16.715Z,98.30
2023-05-20T01:11:40.090Z,98.40
2023-05-20T01:12:54.623Z,98.50
2023-05-20T01:14:03.487Z,98.60
2023-05-20T01:15:10.797Z,99.00
2023-05-20T01:16:18.202Z,98.60
2023-05-20T01:17:21.571Z,98.80
2023-05-20T01:18:30.260Z,98.90
2023-05-20T01:19:44.748Z,98.90
2023-05-20T01:20:50.138Z,99.00
2023-05-20T01:21:54.395Z,99.10
2023-05-20T01:22:57.680Z,99.10
2023-05-20T01:24:01.848Z,99.20
2023-05-20T01:25:05.475Z,99.30
2023-05-20T01:26:08.892Z,99.40
2023-05-20T01:27:13.563Z,99.50
2023-05-20T01:28:18.113Z,99.70
2023-05-20T01:29:22.436Z,99.80
2023-05-20T01:30:36.164Z,99.90
2023-05-20T01:31:39.538Z,99.90
2023-05-20T01:32:49.553Z,99.90
2023-05-20T01:33:56.540Z,99.90
2023-05-20T01:35:00.630Z,99.90
2023-05-20T01:36:04.014Z,99.90
2023-05-20T01:37:07.416Z,99.90
2023-05-20T01:38:10.170Z,99.90
2023-05-20T01:39:14.109Z,99.90
2023-05-20T01:40:18.617Z,99.90
2023-05-20T01:41:24.234Z,99.90
2023-05-20T01:42:28.239Z,99.90
2023-05-20T01:43:31.481Z,99.90
2023-05-20T01:44:34.211Z,99.90
2023-05-20T01:45:38.338Z,99.90
2023-05-20T01:46:41.768Z,99.90
2023-05-20T01:47:46.228Z,99.90
2023-05-20T01:48:48.921Z,99.90
2023-05-20T01:49:54.208Z,99.90
2023-05-20T01:50:56.927Z,99.90
2023-05-20T01:51:59.763Z,99.90
2023-05-20T01:53:02.356Z,99.90
2023-05-20T01:54:05.040Z,99.90
2023-05-20T01:55:08.114Z,99.90
2023-05-20T01:56:10.928Z,99.90
2023-05-20T01:57:13.533Z,99.90
2023-05-20T01:58:16.254Z,99.90
2023-05-20T01:59:19.002Z,99.90
2023-05-20T02:00:22.331Z,99.90
2023-05-20T02:01:25.096Z,99.90
2023-05-20T02:02:27.977Z,99.90
2023-05-20T02:03:30.935Z,99.90
2023-05-20T02:04:33.541Z,99.90
2023-05-20T02:05:36.400Z,99.90
2023-05-20T02:06:41.168Z,99.90
2023-05-20T02:07:43.868Z,99.90
2023-05-20T02:08:46.473Z,99.90
2023-05-20T02:09:49.114Z,99.90
2023-05-20T02:10:51.744Z,99.90
2023-05-20T02:11:54.456Z,99.90
2023-05-20T02:12:57.093Z,99.90
2023-05-20T02:14:00.017Z,99.90
2023-05-20T02:15:02.924Z,99.90
2023-05-20T02:16:06.100Z,99.90
2023-05-20T02:17:08.848Z,99.90
2023-05-20T02:18:12.803Z,99.90
2023-05-20T02:19:19.895Z,99.90
2023-05-20T02:20:22.573Z,99.90
2023-05-20T02:21:26.018Z,99.90
2023-05-20T02:22:29.716Z,99.90
2023-05-20T02:23:32.411Z,99.90
2023-05-20T02:24:35.123Z,99.90
2023-05-20T02:25:37.784Z,99.90
2023-05-20T02:26:40.454Z,99.90
2023-05-20T02:27:44.236Z,99.90
2023-05-20T02:28:50.698Z,99.90
2023-05-20T02:29:53.748Z,99.90
2023-05-20T02:30:56.369Z,99.90
2023-05-20T02:31:59.348Z,99.90
2023-05-20T02:33:04.575Z,99.90
2023-05-20T02:34:07.350Z,99.90
2023-05-20T02:35:10.102Z,99.90
2023-05-20T02:36:12.766Z,99.90
2023-05-20T02:37:15.625Z,99.90
2023-05-20T02:38:18.256Z,99.90
2023-05-20T02:39:20.921Z,99.90
2023-05-20T02:40:23.616Z,99.90
2023-05-20T02:41:26.194Z,99.90
2023-05-20T02:42:28.837Z,99.90
2023-05-20T02:43:33.223Z,99.90
2023-05-20T02:44:37.094Z,99.90
2023-05-20T02:45:40.100Z,99.90
2023-05-20T02:46:43.050Z,99.90
2023-05-20T02:47:45.723Z,99.90
2023-05-20T02:48:48.389Z,99.90
2023-05-20T02:49:51.008Z,99.90
2023-05-20T02:50:53.611Z,99.90
2023-05-20T02:51:56.549Z,99.90
2023-05-20T02:52:59.233Z,99.90
2023-05-20T02:54:01.989Z,99.90
2023-05-20T02:55:05.165Z,99.90
2023-05-20T02:56:08.775Z,99.90
2023-05-20T02:57:11.424Z,99.90
2023-05-20T02:58:14.088Z,99.90
2023-05-20T02:59:16.905Z,99.90
2023-05-20T03:00:19.673Z,99.90
2023-05-20T03:01:23.431Z,99.90
2023-05-20T03:02:26.166Z,99.90
2023-05-20T03:03:28.898Z,99.90
2023-05-20T03:04:31.839Z,99.90
2023-05-20T03:05:37.925Z,99.90
2023-05-20T03:06:44.478Z,99.90
2023-05-20T03:07:48.823Z,99.90
2023-05-20T03:08:51.453Z,99.90
2023-05-20T03:09:54.138Z,99.90
2023-05-20T03:10:56.832Z,99.90
2023-05-20T03:11:59.473Z,99.90
2023-05-20T03:13:02.294Z,99.90
2023-05-20T03:14:04.877Z,99.90
2023-05-20T03:15:08.280Z,99.90
2023-05-20T03:16:13.269Z,99.90
2023-05-20T03:17:16.183Z,99.90
2023-05-20T03:18:19.214Z,99.90
2023-05-20T03:19:22.419Z,99.90
2023-05-20T03:20:27.088Z,99.90
2023-05-20T03:21:30.633Z,99.90
2023-05-20T03:22:33.695Z,99.90
2023-05-20T03:23:36.337Z,99.90
2023-05-20T03:24:39.069Z,99.90
2023-05-20T03:25:41.774Z,99.90
2023-05-20T03:26:46.527Z,99.90
2023-05-20T03:27:49.357Z,99.90
2023-05-20T03:28:52.158Z,99.90
2023-05-20T03:29:54.957Z,99.90
2023-05-20T03:30:57.646Z,99.90
2023-05-20T03:32:00.456Z,99.90
2023-05-20T03:33:03.713Z,99.90
2023-05-20T03:34:06.444Z,99.90
2023-05-20T03:35:10.128Z,99.90
2023-05-20T03:36:13.403Z,99.90
2023-05-20T03:37:16.029Z,99.90
2023-05-20T03:38:18.646Z,99.90
2023-05-20T03:39:21.459Z,99.90
2023-05-20T03:40:24.242Z,99.90
2023-05-20T03:41:27.210Z,99.90
2023-05-20T03:42:30.999Z,99.90
2023-05-20T03:43:34.176Z,99.90
2023-05-20T03:44:37.184Z,99.90
2023-05-20T03:45:39.967Z,99.90
2023-05-20T03:46:43.723Z,99.90
2023-05-20T03:47:46.582Z,99.90
2023-05-20T03:48:49.299Z,99.90
2023-05-20T03:49:52.551Z,99.90
2023-05-20T03:50:55.689Z,99.90
2023-05-20T03:51:58.356Z,99.90
2023-05-20T03:53:01.319Z,99.90
2023-05-20T03:54:08.877Z,99.90
2023-05-20T03:55:11.853Z,99.90
2023-05-20T03:56:14.568Z,99.90
2023-05-20T03:57:17.520Z,99.90
2023-05-20T03:58:23.440Z,99.90
2023-05-20T03:59:27.230Z,99.90
2023-05-20T04:00:31.544Z,99.90
2023-05-20T04:01:34.814Z,99.90
2023-05-20T04:02:38.797Z,99.90
2023-05-20T04:03:42.719Z,99.90
2023-05-20T04:04:45.653Z,99.90
2023-05-20T04:05:49.607Z,99.90
2023-05-20T04:06:56.376Z,99.90
2023-05-20T04:07:59.777Z,99.90
2023-05-20T04:09:03.828Z,99.90
2023-05-20T04:10:07.355Z,99.90
2023-05-20T04:11:10.045Z,99.90
2023-05-20T04:12:14.037Z,99.90
2023-05-20T04:13:16.893Z,99.90
2023-05-20T04:14:19.716Z,99.90
2023-05-20T04:15:23.989Z,99.90
2023-05-20T04:16:31.643Z,99.90
2023-05-20T04:17:34.716Z,99.90
2023-05-20T04:18:39.221Z,99.90
2023-05-20T04:19:42.758Z,99.90
2023-05-20T04:20:47.171Z,99.90
2023-05-20T04:21:50.720Z,99.90
2023-05-20T04:22:54.305Z,99.90
2023-05-20T04:23:57.545Z,99.90
2023-05-20T04:25:00.922Z,99.90
2023-05-20T04:26:03.714Z,99.90
2023-05-20T04:27:07.983Z,99.90
2023-05-20T04:28:10.840Z,99.90
2023-05-20T04:29:13.536Z,99.90
2023-05-20T04:30:21.830Z,99.90
2023-05-20T04:31:28.590Z,99.90
2023-05-20T04:32:31.337Z,99.90
2023-05-20T04:33:37.895Z,99.90
2023-05-20T04:34:41.235Z,99.90
2023-05-20T04:35:44.346Z,99.90
2023-05-20T04:36:47.281Z,99.90
2023-05-20T04:37:50.827Z,99.90
2023-05-20T04:38:53.539Z,99.90
2023-05-20T04:39:56.285Z,99.90
2023-05-20T04:40:59.817Z,99.90
2023-05-20T04:42:03.612Z,99.90
2023-05-20T04:43:06.299Z,99.90
2023-05-20T04:44:09.661Z,99.90
2023-05-20T04:45:12.712Z,99.90
2023-05-20T04:46:17.301Z,99.90
2023-05-20T04:47:20.025Z,99.90
2023-05-20T04:48:22.975Z,99.90
2023-05-20T04:49:29.248Z,99.90
2023-05-20T04:50:31.978Z,99.90
2023-05-20T04:51:35.538Z,99.90
2023-05-20T04:52:39.334Z,99.90
2023-05-20T04:53:43.220Z,99.90
2023-05-20T04:54:48.381Z,99.90
2023-05-20T04:55:54.719Z,99.90
2023-05-20T04:56:57.764Z,99.90
2023-05-20T04:58:00.678Z,99.90
2023-05-20T04:59:04.222Z,99.90
2023-05-20T05:00:08.709Z,99.90
2023-05-20T05:01:11.527Z,99.90
2023-05-20T05:02:14.886Z,99.90
2023-05-20T05:03:18.247Z,99.90
2023-05-20T05:04:20.919Z,99.90
2023-05-20T05:05:23.581Z,99.90
2023-05-20T05:06:26.221Z,99.90
2023-05-20T05:07:29.114Z,99.90
2023-05-20T05:08:31.737Z,99.90
2023-05-20T05:09:35.077Z,99.90
2023-05-20T05:10:39.163Z,99.90
2023-05-20T05:11:41.909Z,99.90
2023-05-20T05:12:44.518Z,99.90
2023-05-20T05:13:47.443Z,99.90
2023-05-20T05:14:50.092Z,99.90
2023-05-20T05:16:00.100Z,99.90
2023-05-20T05:17:04.729Z,99.90
2023-05-20T05:18:07.625Z,99.90
2023-05-20T05:19:11.677Z,99.90
2023-05-20T05:20:15.491Z,99.90
2023-05-20T05:21:18.373Z,99.90
2023-05-20T05:22:23.160Z,99.90
2023-05-20T05:23:26.931Z,99.90
2023-05-20T05:24:30.057Z,99.90
2023-05-20T05:25:33.438Z,99.90
2023-05-20T05:26:36.216Z,99.90
2023-05-20T05:27:39.826Z,99.90
2023-05-20T05:28:45.891Z,99.90
2023-05-20T05:29:49.140Z,99.90
2023-05-20T05:30:54.455Z,99.90
2023-05-20T05:31:57.190Z,99.90
2023-05-20T05:32:59.999Z,99.90
2023-05-20T05:34:02.783Z,99.90
2023-05-20T05:35:08.055Z,99.90
2023-05-20T05:36:11.056Z,99.90
2023-05-20T05:37:13.702Z,99.90
2023-05-20T05:38:16.731Z,99.90
2023-05-20T05:39:19.340Z,99.90
2023-05-20T05:40:22.022Z,99.90
2023-05-20T05:41:24.723Z,99.90
2023-05-20T05:42:27.652Z,99.90
2023-05-20T05:43:31.690Z,99.90
2023-05-20T05:44:35.420Z,99.90
2023-05-20T05:45:39.550Z,99.90
2023-05-20T05:46:43.011Z,99.90
2023-05-20T05:47:46.414Z,99.90
2023-05-20T05:48:50.994Z,99.90
2023-05-20T05:49:54.407Z,99.90
2023-05-20T05:50:57.071Z,99.90
2023-05-20T05:52:00.181Z,99.90
2023-05-20T05:53:02.872Z,99.90
2023-05-20T05:54:06.065Z,99.90
2023-05-20T05:55:10.372Z,99.90
2023-05-20T05:56:13.026Z,99.90
2023-05-20T05:57:16.314Z,99.90
2023-05-20T05:58:18.945Z,99.90
2023-05-20T05:59:21.625Z,99.90
2023-05-20T06:00:24.889Z,99.90
2023-05-20T06:01:27.768Z,99.90
2023-05-20T06:02:30.742Z,99.90
2023-05-20T06:03:34.048Z,99.90
2023-05-20T06:04:36.893Z,99.90
2023-05-20T06:05:39.517Z,99.90
2023-05-20T06:06:42.553Z,99.90
2023-05-20T06:07:45.156Z,99.90
2023-05-20T06:08:48.027Z,99.90
2023-05-20T06:09:51.419Z,99.90
2023-05-20T06:10:54.046Z,99.90
2023-05-20T06:11:56.913Z,99.90
2023-05-20T06:12:59.526Z,99.90
2023-05-20T06:14:03.376Z,99.90
2023-05-20T06:15:07.700Z,99.90
2023-05-20T06:16:10.326Z,99.90
2023-05-20T06:17:13.075Z,99.90
2023-05-20T06:18:16.126Z,99.90
2023-05-20T06:19:18.952Z,99.90
2023-05-20T06:20:21.651Z,99.90
2023-05-20T06:21:24.487Z,99.90
2023-05-20T06:22:27.143Z,99.90
2023-05-20T06:23:29.845Z,99.90
2023-05-20T06:24:36.054Z,99.90
2023-05-20T06:25:38.805Z,99.90
2023-05-20T06:26:42.134Z,99.90
2023-05-20T06:27:44.830Z,99.90
2023-05-20T06:28:50.510Z,99.90
2023-05-20T06:29:53.241Z,99.90
2023-05-20T06:30:56.252Z,99.90
2023-05-20T06:32:00.080Z,99.90
2023-05-20T06:33:02.936Z,99.90
2023-05-20T06:34:05.651Z,99.90
2023-05-20T06:35:09.118Z,99.90
2023-05-20T06:36:11.880Z,99.90
2023-05-20T06:37:14.575Z,99.90
2023-05-20T06:38:17.252Z,99.90
2023-05-20T06:39:22.185Z,99.90
2023-05-20T06:40:25.241Z,99.90
2023-05-20T06:41:27.853Z,99.90
2023-05-20T06:42:31.111Z,99.90
2023-05-20T06:43:40.869Z,99.90
2023-05-20T06:45:01.982Z,99.90
2023-05-20T06:46:18.776Z,99.90
2023-05-20T06:47:26.414Z,99.90
2023-05-20T06:48:29.138Z,99.90
2023-05-20T06:49:32.144Z,99.90
2023-05-20T06:50:35.843Z,99.90
2023-05-20T06:51:38.882Z,99.90
2023-05-20T06:52:41.515Z,99.90
2023-05-20T06:53:44.517Z,99.90
2023-05-20T06:54:47.168Z,99.90
2023-05-20T06:55:50.453Z,99.90
2023-05-20T06:56:53.086Z,99.90
2023-05-20T06:57:57.326Z,99.90
2023-05-20T06:59:00.836Z,99.90
2023-05-20T07:00:06.005Z,99.90
2023-05-20T07:01:13.905Z,99.90
2023-05-20T07:02:17.596Z,99.90
2023-05-20T07:03:20.398Z,99.90
2023-05-20T07:04:23.125Z,99.90
2023-05-20T07:05:27.668Z,99.90
2023-05-20T07:06:31.621Z,99.90
2023-05-20T07:07:34.797Z,99.90
2023-05-20T07:08:37.473Z,99.90
2023-05-20T07:09:40.306Z,99.90
2023-05-20T07:10:43.674Z,99.90
2023-05-20T07:11:46.418Z,99.90
2023-05-20T07:12:49.070Z,99.90
2023-05-20T07:13:51.815Z,99.90
2023-05-20T07:14:54.472Z,99.90
2023-05-20T07:15:57.595Z,99.90
2023-05-20T07:17:00.341Z,99.90
2023-05-20T07:18:03.027Z,99.90
2023-05-20T07:19:05.934Z,99.90
2023-05-20T07:20:09.904Z,99.90
2023-05-20T07:21:12.586Z,99.90
2023-05-20T07:22:22.702Z,99.90
2023-05-20T07:23:37.082Z,99.90
2023-05-20T07:24:39.721Z,99.90
2023-05-20T07:25:42.363Z,99.90
2023-05-20T07:26:45.181Z,99.90
2023-05-20T07:27:47.886Z,99.90
2023-05-20T07:28:51.788Z,99.90
2023-05-20T07:29:54.696Z,99.90
2023-05-20T07:30:58.114Z,99.90
2023-05-20T07:32:05.455Z,99.90
2023-05-20T07:33:09.298Z,99.90
2023-05-20T07:34:11.964Z,99.90
2023-05-20T07:35:16.436Z,99.90
2023-05-20T07:36:19.490Z,99.90
2023-05-20T07:37:25.519Z,99.90
2023-05-20T07:38:28.211Z,99.90
2023-05-20T07:39:35.141Z,99.90
2023-05-20T07:40:39.042Z,99.90
2023-05-20T07:41:42.146Z,99.90
2023-05-20T07:42:44.793Z,99.90
2023-05-20T07:43:47.501Z,99.90
2023-05-20T07:44:50.113Z,99.90
2023-05-20T07:45:52.796Z,99.90
2023-05-20T07:46:56.025Z,99.90
2023-05-20T07:47:58.819Z,99.90
2023-05-20T07:49:01.488Z,99.90
2023-05-20T07:50:04.523Z,99.90
2023-05-20T07:51:09.542Z,99.90
2023-05-20T07:52:12.692Z,99.90
2023-05-20T07:53:15.372Z,99.90
2023-05-20T07:54:18.035Z,99.90
2023-05-20T07:55:23.793Z,99.90
2023-05-20T07:56:26.554Z,99.90
2023-05-20T07:57:29.358Z,99.90
2023-05-20T07:58:32.601Z,99.90
2023-05-20T07:59:35.298Z,99.90
2023-05-20T08:00:38.153Z,99.90
2023-05-20T08:01:43.518Z,99.90
2023-05-20T08:02:47.944Z,99.90
2023-05-20T08:03:56.463Z,99.90
2023-05-20T08:05:01.074Z,99.90
2023-05-20T08:06:04.131Z,99.90
2023-05-20T08:07:06.785Z,99.90
2023-05-20T08:08:30.861Z,99.90
2023-05-20T08:09:39.332Z,99.90
2023-05-20T08:10:42.367Z,99.90
2023-05-20T08:11:47.152Z,99.90
2023-05-20T08:12:50.820Z,99.90
2023-05-20T08:13:53.718Z,99.90
2023-05-20T08:14:58.361Z,99.90
2023-05-20T08:16:03.955Z,99.90
2023-05-20T08:17:06.734Z,99.90
2023-05-20T08:18:09.493Z,99.90
2023-05-20T08:19:12.366Z,99.90
2023-05-20T08:20:15.065Z,99.90
2023-05-20T08:21:17.723Z,99.90
2023-05-20T08:22:20.817Z,99.90
2023-05-20T08:23:23.447Z,99.90
2023-05-20T08:24:26.434Z,99.90
2023-05-20T08:25:30.234Z,99.90
2023-05-20T08:26:32.931Z,99.90
2023-05-20T08:27:36.932Z,99.90
2023-05-20T08:28:40.928Z,99.90
2023-05-20T08:29:45.411Z,99.70
2023-05-20T08:30:48.848Z,99.60
2023-05-20T08:31:52.349Z,99.70
2023-05-20T08:32:56.430Z,99.60
2023-05-20T08:34:00.735Z,99.50
2023-05-20T08:35:04.674Z,99.70
2023-05-20T08:36:08.494Z,99.90
2023-05-20T08:37:11.407Z,99.90
2023-05-20T08:38:14.191Z,99.90
2023-05-20T08:39:16.909Z,99.90
2023-05-20T08:40:22.337Z,99.90
2023-05-20T08:41:25.821Z,99.90
2023-05-20T08:42:28.544Z,99.90
2023-05-20T08:43:32.938Z,99.90
2023-05-20T08:44:36.728Z,99.90
2023-05-20T08:45:39.710Z,99.90
2023-05-20T08:46:48.989Z,99.90
2023-05-20T08:47:53.222Z,99.90
2023-05-20T08:48:56.163Z,99.90
2023-05-20T08:49:58.896Z,99.90
2023-05-20T08:51:04.168Z,99.90
2023-05-20T08:52:09.863Z,99.90
2023-05-20T08:53:12.533Z,99.90
2023-05-20T08:54:16.998Z,99.90
2023-05-20T08:55:27.080Z,99.90
2023-05-20T08:56:31.113Z,99.90
2023-05-20T08:57:34.775Z,99.90
2023-05-20T08:58:37.650Z,99.90
2023-05-20T08:59:44.387Z,99.90
2023-05-20T09:00:47.015Z,99.90
2023-05-20T09:01:49.787Z,99.90
2023-05-20T09:02:53.396Z,99.90
2023-05-20T09:03:56.228Z,99.90
2023-05-20T09:04:59.321Z,99.90
2023-05-20T09:06:07.460Z,99.90
2023-05-20T09:07:10.164Z,99.90
2023-05-20T09:08:13.088Z,99.90
2023-05-20T09:09:17.078Z,99.90
2023-05-20T09:10:20.968Z,99.90
2023-05-20T09:11:23.874Z,99.90
2023-05-20T09:12:26.581Z,99.90
2023-05-20T09:13:32.822Z,99.90
2023-05-20T09:14:35.595Z,99.90
2023-05-20T09:15:39.122Z,99.90
2023-05-20T09:16:41.964Z,99.90
2023-05-20T09:17:44.848Z,99.90
2023-05-20T09:18:47.624Z,99.90
2023-05-20T09:19:51.678Z,99.90
2023-05-20T09:20:54.745Z,99.90
2023-05-20T09:21:58.371Z,99.90
2023-05-20T09:23:03.648Z,99.90
2023-05-20T09:24:06.727Z,99.90
2023-05-20T09:25:12.290Z,99.90
2023-05-20T09:26:14.956Z,99.80
2023-05-20T09:27:17.911Z,99.80
2023-05-20T09:28:25.256Z,99.70
2023-05-20T09:29:28.106Z,99.20
2023-05-20T09:30:32.925Z,98.90
2023-05-20T09:31:38.954Z,98.90
2023-05-20T09:32:41.925Z,98.70
2023-05-20T09:33:45.071Z,98.40
2023-05-20T09:34:48.171Z,98.10
2023-05-20T09:35:51.038Z,98.00
2023-05-20T09:36:55.199Z,98.00
2023-05-20T09:37:58.832Z,98.40
2023-05-20T09:39:05.362Z,98.30
2023-05-20T09:40:10.197Z,98.50
2023-05-20T09:41:15.380Z,98.60
2023-05-20T09:43:03.258Z,98.10
2023-05-20T09:44:09.133Z,98.10
2023-05-20T09:45:11.810Z,98.20
2023-05-20T09:46:16.682Z,98.00
2023-05-20T09:47:20.157Z,97.70
2023-05-20T09:48:25.258Z,97.30
2023-05-20T09:49:29.788Z,97.30
2023-05-20T09:50:32.847Z,97.00
2023-05-20T09:51:35.997Z,96.90
2023-05-20T09:52:39.711Z,96.80
2023-05-20T09:53:43.134Z,96.90
2023-05-20T09:54:47.236Z,96.70
2023-05-20T09:55:52.548Z,96.40
2023-05-20T09:56:56.582Z,95.80
2023-05-20T09:58:03.148Z,95.70
2023-05-20T09:59:06.523Z,95.70
2023-05-20T10:00:10.467Z,95.80
2023-05-20T10:01:17.920Z,95.80
2023-05-20T10:02:21.196Z,95.80
2023-05-20T10:03:25.167Z,95.60
2023-05-20T10:04:29.452Z,95.60
2023-05-20T10:05:43.233Z,95.00
2023-05-20T10:07:40.647Z,95.20
2023-05-20T10:09:19.987Z,95.40
2023-05-20T10:11:03.526Z,95.30
2023-05-20T10:12:40.242Z,95.30
2023-05-20T10:14:06.207Z,95.10
2023-05-20T10:15:37.985Z,94.50
2023-05-20T10:17:10.029Z,94.10
2023-05-20T10:18:55.632Z,93.90
2023-05-20T10:20:04.538Z,94.10
2023-05-20T10:21:22.421Z,94.10
2023-05-20T10:22:29.913Z,94.00
2023-05-20T10:23:32.509Z,94.00
2023-05-20T10:25:08.594Z,93.30
2023-05-20T10:26:11.265Z,92.60
2023-05-20T10:27:18.081Z,92.70
2023-05-20T10:28:33.072Z,93.00
2023-05-20T10:29:51.422Z,93.30
2023-05-20T10:30:54.203Z,92.70
2023-05-20T10:31:56.976Z,92.10
2023-05-20T10:33:06.516Z,91.70
2023-05-20T10:34:22.143Z,91.50
2023-05-20T10:35:28.883Z,91.00
2023-05-20T10:36:33.835Z,90.80
2023-05-20T10:37:44.528Z,90.60
2023-05-20T10:38:53.788Z,91.00
2023-05-20T10:40:09.551Z,90.90
2023-05-20T10:41:12.220Z,90.80
2023-05-20T10:42:14.954Z,90.60
2023-05-20T10:43:28.577Z,90.90
2023-05-20T10:44:47.994Z,90.90
2023-05-20T10:45:56.245Z,90.80
2023-05-20T10:48:29.089Z,91.00
2023-05-20T10:49:35.519Z,90.70
2023-05-20T10:50:40.697Z,90.30
2023-05-20T10:51:46.724Z,90.30
2023-05-20T10:52:49.576Z,90.20
2023-05-20T10:53:56.450Z,90.10
2023-05-20T10:55:01.123Z,89.60
2023-05-20T10:56:04.613Z,90.10
2023-05-20T10:57:12.190Z,90.20
2023-05-20T10:58:15.033Z,90.00
2023-05-20T10:59:18.019Z,89.50
2023-05-20T11:00:20.795Z,89.10
2023-05-20T11:01:26.966Z,89.20
2023-05-20T11:02:30.713Z,89.30
2023-05-20T11:03:35.564Z,89.50
2023-05-20T11:04:39.559Z,89.40
2023-05-20T11:05:42.731Z,89.30
2023-05-20T11:06:55.376Z,89.20
2023-05-20T11:08:16.813Z,89.60
2023-05-20T11:09:27.283Z,90.00
2023-05-20T11:10:30.128Z,88.90
2023-05-20T11:11:33.005Z,88.40
2023-05-20T11:12:35.850Z,88.60
2023-05-20T11:13:38.870Z,88.60
2023-05-20T11:14:41.693Z,89.30
2023-05-20T11:15:44.426Z,88.20
2023-05-20T11:16:47.203Z,86.90
2023-05-20T11:17:57.682Z,87.00
2023-05-20T11:19:00.386Z,87.80
2023-05-20T11:20:03.099Z,89.20
2023-05-20T11:21:05.800Z,89.60
2023-05-20T11:22:08.721Z,88.60
2023-05-20T11:23:15.665Z,88.40
2023-05-20T11:24:29.001Z,88.10
2023-05-20T11:25:33.161Z,89.00
2023-05-20T11:26:36.959Z,87.80
2023-05-20T11:27:40.146Z,87.90
2023-05-20T11:28:42.790Z,88.00
2023-05-20T11:29:45.563Z,88.80
2023-05-20T11:30:49.373Z,87.40
2023-05-20T11:31:52.500Z,86.40
2023-05-20T11:33:03.335Z,87.60
2023-05-20T11:34:06.188Z,87.00
2023-05-20T11:35:19.784Z,87.10
2023-05-20T11:36:28.062Z,86.90
2023-05-20T11:37:31.794Z,87.10
2023-05-20T11:38:34.432Z,87.60
2023-05-20T11:39:38.083Z,87.80
2023-05-20T11:40:54.424Z,88.30
2023-05-20T11:41:59.106Z,88.80
2023-05-20T11:43:03.425Z,89.50
2023-05-20T11:44:12.691Z,90.00
2023-05-20T11:45:15.316Z,89.10
2023-05-20T11:46:21.468Z,88.90
2023-05-20T11:47:30.134Z,88.80
2023-05-20T11:48:32.835Z,88.60
2023-05-20T11:49:40.578Z,88.80
2023-05-20T11:50:47.151Z,88.10
2023-05-20T11:51:50.479Z,88.30
2023-05-20T11:53:00.725Z,88.90
2023-05-20T11:54:05.859Z,88.50
2023-05-20T11:55:11.459Z,88.40
2023-05-20T11:56:14.900Z,88.90
2023-05-20T11:57:17.486Z,89.90
2023-05-20T11:58:25.504Z,89.40
2023-05-20T11:59:28.324Z,89.20
2023-05-20T12:00:33.668Z,90.20
2023-05-20T12:01:43.242Z,90.00
2023-05-20T12:02:47.074Z,89.50
2023-05-20T12:03:49.942Z,89.10
2023-05-20T12:04:52.768Z,88.80
2023-05-20T12:05:55.642Z,89.20
2023-05-20T12:06:58.342Z,88.90
2023-05-20T12:08:01.075Z,89.80
2023-05-20T12:09:07.219Z,89.90
2023-05-20T12:10:11.149Z,88.10
2023-05-20T12:11:13.991Z,87.70
2023-05-20T12:12:16.721Z,87.40
2023-05-20T12:13:19.611Z,87.10
2023-05-20T12:14:22.388Z,87.30
2023-05-20T12:15:25.273Z,87.90
2023-05-20T12:16:27.987Z,87.80
2023-05-20T12:17:49.033Z,88.30
2023-05-20T12:18:51.690Z,88.70
2023-05-20T12:19:54.404Z,90.10
2023-05-20T12:20:57.145Z,90.00
2023-05-20T12:22:02.505Z,90.10
2023-05-20T12:23:05.178Z,89.40
2023-05-20T12:24:08.695Z,89.70
2023-05-20T12:25:19.379Z,88.80
2023-05-20T12:26:21.990Z,88.10
2023-05-20T12:27:24.842Z,88.50
2023-05-20T12:28:27.528Z,88.60
2023-05-20T12:29:30.250Z,89.10
2023-05-20T12:30:34.166Z,87.30
2023-05-20T12:31:37.117Z,86.30
2023-05-20T12:32:39.920Z,86.40
2023-05-20T12:33:42.777Z,86.70
2023-05-20T12:34:45.393Z,86.80
2023-05-20T12:35:48.051Z,86.30
2023-05-20T12:36:50.873Z,84.40
2023-05-20T12:37:53.825Z,84.70
2023-05-20T12:38:56.752Z,84.90
2023-05-20T12:40:00.013Z,85.40
2023-05-20T12:41:02.833Z,86.50
2023-05-20T12:42:05.658Z,86.80
2023-05-20T12:43:08.334Z,86.40
2023-05-20T12:44:11.115Z,86.70
2023-05-20T12:45:13.787Z,85.50
2023-05-20T12:46:16.691Z,87.00
2023-05-20T12:47:20.937Z,85.30
2023-05-20T12:48:23.586Z,85.60
2023-05-20T12:49:26.308Z,86.60
2023-05-20T12:50:29.047Z,87.70
2023-05-20T12:51:31.851Z,87.30
2023-05-20T12:52:34.492Z,87.60
2023-05-20T12:53:37.177Z,87.90
2023-05-20T12:54:39.771Z,87.30
2023-05-20T12:55:42.353Z,87.30
2023-05-20T12:56:47.554Z,87.70
2023-05-20T12:57:50.878Z,87.10
2023-05-20T12:58:53.571Z,86.40
2023-05-20T12:59:56.735Z,86.00
2023-05-20T13:00:59.432Z,86.00
2023-05-20T13:02:02.922Z,85.50
2023-05-20T13:03:05.941Z,85.90
2023-05-20T13:04:08.673Z,84.80
2023-05-20T13:05:11.674Z,84.80
2023-05-20T13:06:14.353Z,85.00
2023-05-20T13:07:16.996Z,85.30
2023-05-20T13:08:19.669Z,85.30
2023-05-20T13:09:22.354Z,86.10
2023-05-20T13:10:25.045Z,85.50
2023-05-20T13:11:27.931Z,85.20
2023-05-20T13:12:30.592Z,85.50
2023-05-20T13:13:33.197Z,86.00
2023-05-20T13:14:35.829Z,86.90
2023-05-20T13:15:39.015Z,87.10
2023-05-20T13:16:41.881Z,86.90
2023-05-20T13:17:44.796Z,87.00
2023-05-20T13:18:47.593Z,86.40
2023-05-20T13:19:50.586Z,86.40
2023-05-20T13:20:53.231Z,86.00
2023-05-20T13:21:55.908Z,85.90
2023-05-20T13:22:58.522Z,84.80
2023-05-20T13:24:01.355Z,84.60
2023-05-20T13:25:05.012Z,85.90
2023-05-20T13:26:08.143Z,85.90
2023-05-20T13:27:11.154Z,85.10
2023-05-20T13:28:16.816Z,84.10
2023-05-20T13:29:19.508Z,83.90
2023-05-20T13:30:22.204Z,84.30
2023-05-20T13:31:24.842Z,83.90
2023-05-20T13:32:27.978Z,84.00
2023-05-20T13:33:30.791Z,83.90
2023-05-20T13:34:33.642Z,84.70
2023-05-20T13:35:36.414Z,85.10
2023-05-20T13:36:39.425Z,85.00
2023-05-20T13:37:42.067Z,85.20
2023-05-20T13:38:44.700Z,85.50
2023-05-20T13:39:48.118Z,85.40
2023-05-20T13:40:50.907Z,84.70
2023-05-20T13:41:55.056Z,84.40
2023-05-20T13:42:57.894Z,85.30
2023-05-20T13:44:00.584Z,84.80
2023-05-20T13:45:03.347Z,84.50
2023-05-20T13:46:06.165Z,83.40
2023-05-20T13:47:08.972Z,81.80
2023-05-20T13:48:11.709Z,82.80
2023-05-20T13:49:14.457Z,83.80
2023-05-20T13:50:17.138Z,84.30
2023-05-20T13:51:19.736Z,83.60
2023-05-20T13:52:22.356Z,83.50